Time;durP1;ratioP1;P1;durP2;ratioP2;P2;SDS_P1;SDS_P2;PMS_P1;PMS_P2;Temp;Humidity;BMP_temperature;BMP_pressure;BME280_temperature;BME280_humidity;BME280_pressure;Samples;Min_cycle;Max_cycle;Signal;HPM_P1;HPM_P2
2022/11/13 00:00:36;;;;;;;;;;;20.40;80.90;;;;;;4977223;28;19926;-75
2022/11/13 00:03:03;;;;;;;;;;;20.40;81.00;;;;;;4976905;28;20393;-75
2022/11/13 00:05:30;;;;;;;;;;;20.40;81.10;;;;;;4977318;28;19949;-75
2022/11/13 00:07:56;;;;;;;;;;;20.40;81.20;;;;;;4977176;28;19933;-75
2022/11/13 00:10:23;;;;;;;;;;;20.40;82.00;;;;;;4977015;28;19937;-76
2022/11/13 00:12:49;;;;;;;;;;;20.40;81.50;;;;;;4976684;28;20341;-76
2022/11/13 00:15:17;;;;;;;;;;;20.40;81.50;;;;;;4976903;28;19949;-76
2022/11/13 00:17:44;;;;;;;;;;;20.40;81.60;;;;;;4976707;28;20318;-76
2022/11/13 00:20:11;;;;;;;;;;;20.40;81.70;;;;;;4976882;28;19941;-76
2022/11/13 00:22:37;;;;;;;;;;;20.40;81.90;;;;;;4977062;28;19926;-76
2022/11/13 00:25:04;;;;;;;;;;;20.40;81.90;;;;;;4976989;28;19930;-76
2022/11/13 00:27:31;;;;;;;;;;;20.40;82.80;;;;;;4976798;28;19926;-76
2022/11/13 00:29:58;;;;;;;;;;;20.40;82.10;;;;;;4976720;28;19926;-76
2022/11/13 00:32:26;;;;;;;;;;;20.40;82.30;;;;;;4976855;28;19930;-76
2022/11/13 00:34:52;;;;;;;;;;;20.40;82.30;;;;;;4976202;28;20382;-76
2022/11/13 00:37:19;;;;;;;;;;;20.40;82.40;;;;;;4976287;28;20408;-76
2022/11/13 00:39:46;;;;;;;;;;;20.40;82.60;;;;;;4976498;28;19930;-76
2022/11/13 00:42:13;;;;;;;;;;;20.40;82.70;;;;;;4976460;28;19926;-76
2022/11/13 00:44:39;;;;;;;;;;;20.40;82.80;;;;;;4976315;28;19926;-76
2022/11/13 00:47:06;;;;;;;;;;;20.40;82.80;;;;;;4976615;28;19926;-76
2022/11/13 00:49:34;;;;;;;;;;;20.40;82.90;;;;;;4976337;28;19926;-76
2022/11/13 00:52:01;;;;;;;;;;;20.40;83.10;;;;;;4976202;28;19926;-76
2022/11/13 00:54:28;;;;;;;;;;;20.40;83.20;;;;;;4975856;28;19951;-76
2022/11/13 00:56:55;;;;;;;;;;;20.40;83.20;;;;;;4976152;28;19926;-75
2022/11/13 07:18:00;;;;;;;;;;;20.30;91.40;;;;;;5859239;23;19933;-82
2022/11/13 07:20:29;;;;;;;;;;;20.30;91.40;;;;;;4984614;28;19933;-82
2022/11/13 07:22:55;;;;;;;;;;;20.30;91.50;;;;;;4983958;28;19949;-82
2022/11/13 07:25:22;;;;;;;;;;;20.30;91.50;;;;;;4982835;28;19927;-82
2022/11/13 07:27:48;;;;;;;;;;;20.30;91.50;;;;;;4981974;28;20301;-81
2022/11/13 07:30:15;;;;;;;;;;;20.30;91.50;;;;;;4982208;28;19926;-81
2022/11/13 07:32:42;;;;;;;;;;;20.30;91.50;;;;;;4979366;28;19933;-76
2022/11/13 07:35:09;;;;;;;;;;;20.30;91.50;;;;;;4977707;28;19926;-76
2022/11/13 07:37:37;;;;;;;;;;;20.30;91.60;;;;;;4977688;28;19933;-76
2022/11/13 07:40:04;;;;;;;;;;;20.30;91.60;;;;;;4977822;28;19930;-76
2022/11/13 07:42:31;;;;;;;;;;;20.30;91.60;;;;;;4977433;28;20378;-77
2022/11/13 07:44:57;;;;;;;;;;;20.30;91.60;;;;;;4977588;28;19926;-74
2022/11/13 07:47:24;;;;;;;;;;;20.30;91.60;;;;;;4977431;28;19926;-75
2022/11/13 07:49:51;;;;;;;;;;;20.30;91.70;;;;;;4977722;28;19934;-77
2022/11/13 07:52:17;;;;;;;;;;;20.30;91.70;;;;;;4977393;28;20298;-74
2022/11/13 07:54:45;;;;;;;;;;;20.30;91.70;;;;;;4977329;28;19926;-74
2022/11/13 07:57:13;;;;;;;;;;;20.30;91.70;;;;;;4976957;28;19926;-75
2022/11/13 07:59:39;;;;;;;;;;;20.30;92.10;;;;;;4977310;28;19949;-74
2022/11/13 08:02:06;;;;;;;;;;;20.30;91.80;;;;;;4977398;28;20001;-74
2022/11/13 08:04:32;;;;;;;;;;;20.30;91.80;;;;;;4976888;28;20409;-75
2022/11/13 08:06:59;;;;;;;;;;;20.30;91.90;;;;;;4977101;28;19926;-75
2022/11/13 08:09:25;;;;;;;;;;;20.30;91.90;;;;;;4976363;28;19933;-75
2022/11/13 08:11:53;;;;;;;;;;;20.20;91.90;;;;;;4976715;28;20382;-75
2022/11/13 08:14:20;;;;;;;;;;;20.30;91.90;;;;;;4977025;28;19926;-74
2022/11/13 08:16:46;;;;;;;;;;;20.20;91.90;;;;;;4976970;28;19937;-74
2022/11/13 08:19:13;;;;;;;;;;;20.20;92.00;;;;;;4976872;28;19936;-75
2022/11/13 08:21:40;;;;;;;;;;;20.30;92.00;;;;;;4976510;28;20379;-75
2022/11/13 08:24:06;;;;;;;;;;;20.20;92.00;;;;;;4976572;28;20393;-74
2022/11/13 08:26:33;;;;;;;;;;;20.20;92.00;;;;;;4976793;28;19930;-74
2022/11/13 08:29:01;;;;;;;;;;;20.20;92.10;;;;;;4976710;28;19933;-74
2022/11/13 08:31:27;;;;;;;;;;;20.30;92.20;;;;;;4976653;28;19926;-74
2022/11/13 08:33:54;;;;;;;;;;;20.30;92.20;;;;;;4976853;28;19926;-75
2022/11/13 08:36:21;;;;;;;;;;;20.20;92.20;;;;;;4978453;28;19933;-74
2022/11/13 08:38:48;;;;;;;;;;;20.30;92.30;;;;;;4981558;28;19927;-74
2022/11/13 08:41:15;;;;;;;;;;;20.20;92.20;;;;;;4982052;28;20413;-75
2022/11/13 08:43:42;;;;;;;;;;;20.20;92.30;;;;;;4981029;28;19964;-74
2022/11/13 08:46:10;;;;;;;;;;;20.30;92.40;;;;;;4982726;28;19973;-74
2022/11/13 08:48:37;;;;;;;;;;;20.20;92.40;;;;;;4982018;28;19926;-74
2022/11/13 08:51:04;;;;;;;;;;;20.20;92.40;;;;;;4982341;28;19926;-74
2022/11/13 08:53:31;;;;;;;;;;;20.30;92.50;;;;;;4983057;28;20024;-74
2022/11/13 08:55:59;;;;;;;;;;;20.20;92.50;;;;;;4981834;28;19930;-74
2022/11/13 08:58:27;;;;;;;;;;;20.30;92.60;;;;;;4982283;28;19926;-74
2022/11/13 09:00:53;;;;;;;;;;;20.30;92.70;;;;;;4984625;28;19953;-74
2022/11/13 09:03:22;;;;;;;;;;;20.30;92.80;;;;;;4982465;28;19933;-74
2022/11/13 09:05:49;;;;;;;;;;;20.30;93.20;;;;;;4981596;28;19973;-75
2022/11/13 09:08:16;;;;;;;;;;;20.20;92.90;;;;;;4981578;28;19941;-75
2022/11/13 09:10:43;;;;;;;;;;;20.20;92.90;;;;;;4983517;28;19926;-75
2022/11/13 09:13:10;;;;;;;;;;;20.30;93.00;;;;;;4981014;28;19926;-75
2022/11/13 09:15:38;;;;;;;;;;;20.30;93.00;;;;;;4981829;28;19926;-75
2022/11/13 09:18:05;;;;;;;;;;;20.30;93.00;;;;;;4981278;28;20362;-75
2022/11/13 09:20:33;;;;;;;;;;;20.30;93.10;;;;;;4981584;28;20441;-75
2022/11/13 09:23:01;;;;;;;;;;;20.30;93.20;;;;;;4979825;28;19973;-74
2022/11/13 09:25:28;;;;;;;;;;;20.30;93.20;;;;;;4976158;28;20292;-79
2022/11/13 09:27:55;;;;;;;;;;;20.30;93.30;;;;;;4976321;28;19926;-79
2022/11/13 09:30:22;;;;;;;;;;;20.30;93.30;;;;;;4976214;28;19926;-79
2022/11/13 09:32:52;;;;;;;;;;;20.30;93.40;;;;;;4985290;28;19933;-82
2022/11/13 09:35:32;;;;;;;;;;;20.30;93.40;;;;;;4986759;28;19926;-81
2022/11/13 09:38:01;;;;;;;;;;;20.30;93.50;;;;;;4985384;28;19926;-81
2022/11/13 09:40:30;;;;;;;;;;;20.30;93.50;;;;;;4980592;28;20009;-79
2022/11/13 09:42:57;;;;;;;;;;;20.30;93.50;;;;;;4975763;28;19926;-78
2022/11/13 09:45:24;;;;;;;;;;;20.30;93.60;;;;;;4975475;28;20172;-78
2022/11/13 09:47:51;;;;;;;;;;;20.30;93.60;;;;;;4975373;28;20008;-78
2022/11/13 09:50:20;;;;;;;;;;;20.30;93.60;;;;;;4975617;28;19930;-77
2022/11/13 09:52:46;;;;;;;;;;;20.30;93.70;;;;;;4976598;28;19937;-79
2022/11/13 09:55:16;;;;;;;;;;;20.30;93.70;;;;;;4981831;28;20020;-79
2022/11/13 09:57:47;;;;;;;;;;;20.30;93.70;;;;;;4981502;28;19933;-79
2022/11/13 10:00:16;;;;;;;;;;;20.40;93.80;;;;;;4981015;28;19936;-78
2022/11/13 10:02:48;;;;;;;;;;;20.30;93.80;;;;;;4980715;28;19993;-78
2022/11/13 10:05:21;;;;;;;;;;;20.40;93.80;;;;;;4981208;28;19926;-78
2022/11/13 10:07:52;;;;;;;;;;;20.40;93.80;;;;;;4981185;28;19926;-79
2022/11/13 10:10:40;;;;;;;;;;;20.40;93.80;;;;;;4981764;28;19926;-81
2022/11/13 10:13:11;;;;;;;;;;;20.40;93.80;;;;;;4975352;28;20292;-81
2022/11/13 10:15:39;;;;;;;;;;;20.40;93.80;;;;;;4981382;28;19927;-81
2022/11/13 10:18:07;;;;;;;;;;;20.40;93.80;;;;;;4981026;28;20389;-83
2022/11/13 10:20:36;;;;;;;;;;;20.40;93.80;;;;;;4980618;28;20318;-77
2022/11/13 10:23:08;;;;;;;;;;;20.40;93.80;;;;;;4981334;28;20390;-81
2022/11/13 10:25:36;;;;;;;;;;;20.40;93.80;;;;;;4981513;28;20032;-80
2022/11/13 10:28:10;;;;;;;;;;;20.40;93.80;;;;;;4981457;28;19926;-79
2022/11/13 10:30:39;;;;;;;;;;;20.40;93.80;;;;;;4981124;28;19973;-82
2022/11/13 10:33:08;;;;;;;;;;;20.40;93.80;;;;;;4984142;28;19926;-81
2022/11/13 10:35:47;;;;;;;;;;;20.40;93.70;;;;;;4984747;28;19930;-81
2022/11/13 10:38:19;;;;;;;;;;;20.40;93.70;;;;;;4983875;28;20283;-83
2022/11/13 10:40:46;;;;;;;;;;;20.40;93.60;;;;;;4982422;28;19930;-82
2022/11/13 10:43:14;;;;;;;;;;;20.40;93.50;;;;;;4982239;28;20374;-81
2022/11/13 10:45:42;;;;;;;;;;;20.40;93.50;;;;;;4982379;28;19926;-81
2022/11/13 10:48:19;;;;;;;;;;;20.40;93.40;;;;;;4982449;28;19926;-81
2022/11/13 10:50:52;;;;;;;;;;;20.40;93.40;;;;;;4982873;28;19926;-82
2022/11/13 10:53:19;;;;;;;;;;;20.40;93.30;;;;;;4981591;28;19933;-82
2022/11/13 10:55:46;;;;;;;;;;;20.30;93.20;;;;;;4982255;28;19933;-82
2022/11/13 10:58:13;;;;;;;;;;;20.30;93.00;;;;;;4981391;28;19926;-81
2022/11/13 11:00:43;;;;;;;;;;;20.30;93.00;;;;;;4981396;28;20405;-82
2022/11/13 11:03:14;;;;;;;;;;;20.30;93.00;;;;;;4981051;28;19930;-82
2022/11/13 11:05:50;;;;;;;;;;;20.30;93.00;;;;;;4980710;28;20397;-82
2022/11/13 11:08:25;;;;;;;;;;;20.30;93.00;;;;;;4980404;28;19926;-81
2022/11/13 11:13:40;;;;;;;;;;;20.30;93.00;;;;;;4980252;28;19997;-82
2022/11/13 11:16:11;;;;;;;;;;;20.30;92.90;;;;;;4980116;28;19926;-82
2022/11/13 11:18:41;;;;;;;;;;;20.20;92.80;;;;;;4979310;28;19933;-81
2022/11/13 11:21:09;;;;;;;;;;;20.30;92.70;;;;;;4979828;28;19932;-81
2022/11/13 11:23:39;;;;;;;;;;;20.30;92.70;;;;;;4979954;28;19949;-82
2022/11/13 11:26:09;;;;;;;;;;;20.30;92.60;;;;;;4980047;28;19926;-82
2022/11/13 11:28:37;;;;;;;;;;;20.20;92.50;;;;;;4979842;28;19933;-81
2022/11/13 11:31:08;;;;;;;;;;;20.20;92.50;;;;;;4979945;28;19937;-81
2022/11/13 11:33:39;;;;;;;;;;;20.20;92.40;;;;;;4979561;28;20404;-81
2022/11/13 11:36:13;;;;;;;;;;;20.20;92.40;;;;;;4980277;28;19926;-81
2022/11/13 11:38:43;;;;;;;;;;;20.20;92.40;;;;;;4979765;28;19934;-81
2022/11/13 11:41:11;;;;;;;;;;;20.20;92.30;;;;;;4980020;28;20305;-81
2022/11/13 11:43:41;;;;;;;;;;;20.20;92.30;;;;;;4978717;28;19933;-81
2022/11/13 11:46:10;;;;;;;;;;;20.20;92.30;;;;;;4979975;28;19933;-81
2022/11/13 11:48:38;;;;;;;;;;;20.20;92.30;;;;;;4980028;28;19926;-81
2022/11/13 11:51:08;;;;;;;;;;;20.20;92.20;;;;;;4979864;28;19937;-81
2022/11/13 11:53:40;;;;;;;;;;;20.20;92.20;;;;;;4980035;28;19992;-81
2022/11/13 11:56:12;;;;;;;;;;;20.20;92.20;;;;;;4980693;28;19933;-81
2022/11/13 11:58:51;;;;;;;;;;;20.20;92.20;;;;;;4979734;28;19949;-81
2022/11/13 12:01:22;;;;;;;;;;;20.20;92.20;;;;;;4980244;28;20298;-81
2022/11/13 12:04:02;;;;;;;;;;;20.20;92.10;;;;;;4979852;28;19926;-82
2022/11/13 12:06:34;;;;;;;;;;;20.20;92.10;;;;;;4980159;28;19926;-82
2022/11/13 12:09:04;;;;;;;;;;;20.20;92.10;;;;;;4980509;28;19933;-80
2022/11/13 12:11:32;;;;;;;;;;;20.20;92.10;;;;;;4979976;28;19926;-82
2022/11/13 12:14:05;;;;;;;;;;;20.20;92.00;;;;;;4979554;28;20013;-82
2022/11/13 12:16:36;;;;;;;;;;;20.20;92.00;;;;;;4980037;28;19933;-83
2022/11/13 12:19:04;;;;;;;;;;;20.30;92.00;;;;;;4978352;28;19933;-80
2022/11/13 12:21:37;;;;;;;;;;;20.20;92.00;;;;;;4978449;28;20302;-79
2022/11/13 12:24:09;;;;;;;;;;;20.20;92.00;;;;;;4979806;28;19926;-80
2022/11/13 12:26:41;;;;;;;;;;;20.20;92.00;;;;;;4980098;28;19941;-80
2022/11/13 12:29:12;;;;;;;;;;;20.20;92.00;;;;;;4980110;28;19933;-79
2022/11/13 12:31:46;;;;;;;;;;;20.20;91.90;;;;;;4977396;28;20008;-78
2022/11/13 12:34:19;;;;;;;;;;;20.20;92.10;;;;;;4977303;28;19933;-78
2022/11/13 12:36:46;;;;;;;;;;;20.30;92.40;;;;;;4978717;28;20394;-78
2022/11/13 12:39:20;;;;;;;;;;;20.30;92.60;;;;;;4978700;28;20416;-84
2022/11/13 12:41:49;;;;;;;;;;;20.30;92.70;;;;;;4981970;28;19937;-82
2022/11/13 12:44:20;;;;;;;;;;;20.40;92.90;;;;;;4983317;28;19930;-81
2022/11/13 12:46:47;;;;;;;;;;;20.40;93.00;;;;;;4981062;28;20318;-81
2022/11/13 12:49:28;;;;;;;;;;;20.40;93.00;;;;;;4981648;28;19926;-81
2022/11/13 12:51:56;;;;;;;;;;;20.40;93.00;;;;;;4984653;28;19932;-81
2022/11/13 12:54:30;;;;;;;;;;;20.40;93.00;;;;;;4985687;28;19950;-81
2022/11/13 12:57:21;;;;;;;;;;;20.40;93.00;;;;;;4981902;28;20293;-81
2022/11/13 12:59:49;;;;;;;;;;;20.40;93.00;;;;;;4961214;28;19933;-81
2022/11/13 13:02:22;;;;;;;;;;;20.50;93.60;;;;;;4980168;28;19930;-79
2022/11/13 13:04:58;;;;;;;;;;;20.50;93.90;;;;;;4981210;28;19926;-79
2022/11/13 13:07:33;;;;;;;;;;;20.60;94.10;;;;;;4978777;28;19926;-79
2022/11/13 13:10:08;;;;;;;;;;;20.60;94.40;;;;;;4979637;28;19933;-79
2022/11/13 13:12:41;;;;;;;;;;;20.70;94.80;;;;;;4977801;28;20439;-79
2022/11/13 13:15:26;;;;;;;;;;;20.70;95.10;;;;;;4978865;28;20274;-79
2022/11/13 13:18:01;;;;;;;;;;;20.80;95.60;;;;;;4979244;28;19933;-79
2022/11/13 13:20:31;;;;;;;;;;;20.80;95.70;;;;;;4983164;28;20038;-81
2022/11/13 13:22:58;;;;;;;;;;;20.80;96.00;;;;;;4985015;28;19934;-81
2022/11/13 13:25:25;;;;;;;;;;;20.80;96.30;;;;;;4981579;28;19976;-81
2022/11/13 13:27:56;;;;;;;;;;;20.90;96.60;;;;;;4977572;28;19926;-79
2022/11/13 13:30:25;;;;;;;;;;;20.90;96.80;;;;;;4977572;28;19926;-80
2022/11/13 13:32:56;;;;;;;;;;;20.90;97.10;;;;;;4977589;28;20072;-80
2022/11/13 13:35:26;;;;;;;;;;;20.90;97.30;;;;;;4977514;28;20294;-80
2022/11/13 13:37:56;;;;;;;;;;;20.90;97.60;;;;;;4978973;28;19934;-81
2022/11/13 13:40:29;;;;;;;;;;;20.90;97.80;;;;;;4977661;28;19926;-79
2022/11/13 13:43:06;;;;;;;;;;;20.90;98.10;;;;;;4976773;28;19930;-78
2022/11/13 13:45:36;;;;;;;;;;;20.90;98.20;;;;;;4976163;28;19932;-77
2022/11/13 13:48:08;;;;;;;;;;;20.90;98.20;;;;;;4975493;28;19933;-77
2022/11/13 13:50:40;;;;;;;;;;;20.90;98.20;;;;;;4976083;28;19926;-81
2022/11/13 13:53:12;;;;;;;;;;;20.90;98.40;;;;;;4976341;28;19933;-79
2022/11/13 13:55:39;;;;;;;;;;;20.90;98.50;;;;;;4976788;28;19933;-79
2022/11/13 13:58:08;;;;;;;;;;;20.90;98.60;;;;;;4977505;28;19930;-79
2022/11/13 14:00:35;;;;;;;;;;;20.90;98.70;;;;;;4976281;28;19927;-79
2022/11/13 14:03:02;;;;;;;;;;;20.80;98.80;;;;;;4976812;28;19926;-79
2022/11/13 14:05:30;;;;;;;;;;;20.80;98.80;;;;;;4976019;28;19926;-79
2022/11/13 14:07:57;;;;;;;;;;;20.80;98.90;;;;;;4975580;28;19926;-79
2022/11/13 14:10:26;;;;;;;;;;;20.80;99.00;;;;;;4976836;28;19933;-79
2022/11/13 14:12:54;;;;;;;;;;;20.80;99.10;;;;;;4977075;28;19973;-79
2022/11/13 14:15:22;;;;;;;;;;;20.90;99.20;;;;;;4977086;28;19926;-79
2022/11/13 14:17:49;;;;;;;;;;;20.90;99.30;;;;;;4976121;28;19926;-79
2022/11/13 14:20:16;;;;;;;;;;;20.80;99.30;;;;;;4976685;28;19934;-79
2022/11/13 14:22:43;;;;;;;;;;;20.80;99.40;;;;;;4976210;28;20312;-79
2022/11/13 14:25:16;;;;;;;;;;;20.80;99.40;;;;;;4976806;28;19926;-79
2022/11/13 14:27:44;;;;;;;;;;;20.80;99.50;;;;;;4976143;28;19926;-79
2022/11/13 14:30:21;;;;;;;;;;;20.90;99.60;;;;;;4976553;28;19934;-79
2022/11/13 14:32:48;;;;;;;;;;;20.90;99.70;;;;;;4976860;28;19934;-79
2022/11/13 14:35:18;;;;;;;;;;;20.90;99.80;;;;;;4977119;28;20382;-80
2022/11/13 14:37:47;;;;;;;;;;;20.90;99.80;;;;;;4977719;28;19926;-79
2022/11/13 14:40:18;;;;;;;;;;;20.90;99.90;;;;;;4978278;28;19949;-79
2022/11/13 14:42:48;;;;;;;;;;;20.90;99.90;;;;;;4977136;28;19933;-80
2022/11/13 14:45:16;;;;;;;;;;;20.90;99.90;;;;;;4976872;28;19949;-80
2022/11/13 14:47:43;;;;;;;;;;;20.90;99.90;;;;;;4978194;28;19932;-80
2022/11/13 14:50:19;;;;;;;;;;;20.90;99.90;;;;;;4977011;28;19927;-77
2022/11/13 14:52:55;;;;;;;;;;;20.90;99.90;;;;;;4975674;28;19993;-77
2022/11/13 14:55:24;;;;;;;;;;;20.90;99.90;;;;;;4974890;28;20302;-77
2022/11/13 14:57:52;;;;;;;;;;;20.90;99.90;;;;;;4977725;28;19926;-83
2022/11/13 15:00:25;;;;;;;;;;;20.90;99.90;;;;;;4979028;28;19932;-83
2022/11/13 15:05:34;;;;;;;;;;;20.90;99.90;;;;;;4975315;28;19926;-79
2022/11/13 15:08:01;;;;;;;;;;;20.90;99.90;;;;;;4976939;28;20275;-79
2022/11/13 15:10:29;;;;;;;;;;;20.80;99.90;;;;;;4978483;28;19926;-79
2022/11/13 15:12:57;;;;;;;;;;;20.80;99.90;;;;;;4978077;28;19933;-80
2022/11/13 15:15:25;;;;;;;;;;;20.80;99.90;;;;;;4977824;28;19926;-80
2022/11/13 15:17:52;;;;;;;;;;;20.80;99.90;;;;;;4978461;28;20317;-80
2022/11/13 15:20:25;;;;;;;;;;;20.80;99.90;;;;;;4981638;28;19926;-80
2022/11/13 15:22:52;;;;;;;;;;;20.80;99.90;;;;;;4980782;28;19926;-79
2022/11/13 15:25:20;;;;;;;;;;;20.80;99.90;;;;;;4979312;28;19926;-78
2022/11/13 15:27:47;;;;;;;;;;;20.80;99.90;;;;;;4978995;28;19968;-78
2022/11/13 15:30:15;;;;;;;;;;;20.80;99.90;;;;;;4978862;28;19926;-80
2022/11/13 15:32:42;;;;;;;;;;;20.80;99.90;;;;;;4978753;28;19926;-79
2022/11/13 15:35:13;;;;;;;;;;;20.80;99.90;;;;;;4979356;28;20393;-79
2022/11/13 15:37:39;;;;;;;;;;;20.80;99.90;;;;;;4979745;28;19926;-80
2022/11/13 15:40:06;;;;;;;;;;;20.80;99.90;;;;;;4979076;28;19941;-80
2022/11/13 15:42:34;;;;;;;;;;;20.80;99.90;;;;;;4978620;28;19926;-79
2022/11/13 15:45:01;;;;;;;;;;;20.80;99.90;;;;;;4978820;28;19993;-80
2022/11/13 15:47:30;;;;;;;;;;;20.80;99.90;;;;;;4979579;28;19933;-81
2022/11/13 15:49:57;;;;;;;;;;;20.70;99.80;;;;;;4982264;28;19977;-80
2022/11/13 15:52:24;;;;;;;;;;;20.70;99.80;;;;;;4980721;28;19933;-79
2022/11/13 15:54:51;;;;;;;;;;;20.70;99.80;;;;;;4979934;28;20278;-79
2022/11/13 15:57:19;;;;;;;;;;;20.80;99.80;;;;;;4980134;28;19933;-79
2022/11/13 15:59:46;;;;;;;;;;;20.70;99.80;;;;;;4980296;28;19926;-79
2022/11/13 16:02:12;;;;;;;;;;;20.70;99.80;;;;;;4979864;28;19926;-79
2022/11/13 16:04:40;;;;;;;;;;;20.70;99.80;;;;;;4978969;28;19933;-79
2022/11/13 16:07:11;;;;;;;;;;;20.70;99.80;;;;;;4979792;28;19930;-79
2022/11/13 16:09:38;;;;;;;;;;;20.70;99.80;;;;;;4980176;28;19932;-79
2022/11/13 16:12:05;;;;;;;;;;;20.70;99.80;;;;;;4980361;28;19926;-79
2022/11/13 16:14:31;;;;;;;;;;;20.80;99.90;;;;;;4978570;28;19926;-77
2022/11/13 16:16:58;;;;;;;;;;;20.70;99.80;;;;;;4976877;28;19933;-78
2022/11/13 16:19:24;;;;;;;;;;;20.70;99.80;;;;;;4977159;28;19933;-77
2022/11/13 16:21:53;;;;;;;;;;;20.80;99.90;;;;;;4976947;28;19929;-77
2022/11/13 16:24:19;;;;;;;;;;;20.70;99.80;;;;;;4976911;28;19965;-77
2022/11/13 16:26:48;;;;;;;;;;;20.70;99.80;;;;;;4977062;28;19926;-77
2022/11/13 16:29:17;;;;;;;;;;;20.70;99.80;;;;;;4976057;28;20299;-77
2022/11/13 16:31:44;;;;;;;;;;;20.70;99.80;;;;;;4976865;28;19926;-77
2022/11/13 16:34:10;;;;;;;;;;;20.70;99.90;;;;;;4976590;28;19934;-77
2022/11/13 16:36:37;;;;;;;;;;;20.70;99.80;;;;;;4976402;28;20401;-78
2022/11/13 16:39:06;;;;;;;;;;;20.70;99.90;;;;;;4976335;28;19930;-77
2022/11/13 16:41:33;;;;;;;;;;;20.70;99.80;;;;;;4976877;28;19926;-77
2022/11/13 16:44:01;;;;;;;;;;;20.70;99.90;;;;;;4975921;28;21297;-76
2022/11/13 16:46:29;;;;;;;;;;;20.70;99.90;;;;;;4976616;28;19938;-78
2022/11/13 16:48:55;;;;;;;;;;;20.70;99.90;;;;;;4976578;28;19926;-79
2022/11/13 16:51:22;;;;;;;;;;;20.70;99.90;;;;;;4976660;28;19933;-79
2022/11/13 16:53:49;;;;;;;;;;;20.70;99.90;;;;;;4976816;28;19926;-79
2022/11/13 16:56:17;;;;;;;;;;;20.70;99.90;;;;;;4976590;28;19926;-79
2022/11/13 16:58:44;;;;;;;;;;;20.70;99.90;;;;;;4976687;28;19941;-79
2022/11/13 17:01:13;;;;;;;;;;;20.70;99.90;;;;;;4976685;28;19926;-79
2022/11/13 17:03:40;;;;;;;;;;;20.70;99.90;;;;;;4976835;28;19926;-79
2022/11/13 17:06:12;;;;;;;;;;;20.70;99.90;;;;;;4976262;28;20382;-79
2022/11/13 17:08:39;;;;;;;;;;;20.70;99.90;;;;;;4976344;28;19926;-79
2022/11/13 17:11:05;;;;;;;;;;;20.70;99.90;;;;;;4976289;28;19933;-79
2022/11/13 17:13:33;;;;;;;;;;;20.70;99.90;;;;;;4976248;28;19926;-79
2022/11/13 17:16:00;;;;;;;;;;;20.70;99.90;;;;;;4976701;28;19934;-79
2022/11/13 17:18:26;;;;;;;;;;;20.70;99.90;;;;;;4977068;28;19933;-79
2022/11/13 17:20:53;;;;;;;;;;;20.70;99.90;;;;;;4975871;28;19926;-79
2022/11/13 17:23:20;;;;;;;;;;;20.70;99.90;;;;;;4976536;28;19926;-79
2022/11/13 17:25:46;;;;;;;;;;;20.70;99.90;;;;;;4976323;28;20286;-79
2022/11/13 17:28:14;;;;;;;;;;;20.70;99.90;;;;;;4976456;28;19926;-79
2022/11/13 17:30:42;;;;;;;;;;;20.70;99.90;;;;;;4976098;28;19930;-79
2022/11/13 17:33:09;;;;;;;;;;;20.70;99.90;;;;;;4976082;28;20469;-79
2022/11/13 17:35:36;;;;;;;;;;;20.70;99.90;;;;;;4976408;28;19926;-79
2022/11/13 17:38:02;;;;;;;;;;;20.70;99.90;;;;;;4975709;28;19926;-79
2022/11/13 17:40:29;;;;;;;;;;;20.70;99.90;;;;;;4975706;28;20290;-78
2022/11/13 17:42:55;;;;;;;;;;;20.70;99.90;;;;;;4975842;28;19934;-79
2022/11/13 17:45:22;;;;;;;;;;;20.70;99.90;;;;;;4975918;28;19926;-79
2022/11/13 17:47:50;;;;;;;;;;;20.70;99.90;;;;;;4975684;28;19926;-79
2022/11/13 17:50:16;;;;;;;;;;;20.70;99.90;;;;;;4975437;28;19926;-79
2022/11/13 17:52:43;;;;;;;;;;;20.70;99.90;;;;;;4975334;28;20298;-79
2022/11/13 17:55:11;;;;;;;;;;;20.70;99.90;;;;;;4975538;28;19933;-79
2022/11/13 17:57:38;;;;;;;;;;;20.70;99.90;;;;;;4975349;28;19930;-79
2022/11/13 18:00:05;;;;;;;;;;;20.70;99.90;;;;;;4975251;28;20425;-79
2022/11/13 18:02:32;;;;;;;;;;;20.70;99.90;;;;;;4975722;28;19926;-79
2022/11/13 18:05:03;;;;;;;;;;;20.70;99.90;;;;;;4975778;28;19933;-79
2022/11/13 18:07:29;;;;;;;;;;;20.70;99.90;;;;;;4975402;28;19926;-79
2022/11/13 18:09:56;;;;;;;;;;;20.70;99.90;;;;;;4976961;28;19933;-79
2022/11/13 18:12:22;;;;;;;;;;;20.70;99.90;;;;;;4976718;28;19926;-79
2022/11/13 18:14:51;;;;;;;;;;;20.70;99.90;;;;;;4976360;28;19926;-81
2022/11/13 18:17:17;;;;;;;;;;;20.70;99.90;;;;;;4975981;28;19930;-78
2022/11/13 18:19:44;;;;;;;;;;;20.70;99.90;;;;;;4975741;28;19957;-78
2022/11/13 18:22:12;;;;;;;;;;;20.70;99.90;;;;;;4975339;28;20401;-78
2022/11/13 18:24:38;;;;;;;;;;;20.70;99.90;;;;;;4975994;28;19930;-78
2022/11/13 18:27:05;;;;;;;;;;;20.70;99.90;;;;;;4975993;28;19934;-79
2022/11/13 18:29:32;;;;;;;;;;;20.60;99.90;;;;;;4975463;28;19930;-79
2022/11/13 18:31:59;;;;;;;;;;;20.60;99.90;;;;;;4976647;28;20017;-78
2022/11/13 18:34:27;;;;;;;;;;;20.60;99.90;;;;;;4975563;28;19933;-77
2022/11/13 18:36:54;;;;;;;;;;;20.60;99.90;;;;;;4975153;28;19972;-77
2022/11/13 18:39:21;;;;;;;;;;;20.60;99.90;;;;;;4975542;28;19926;-78
2022/11/13 18:41:49;;;;;;;;;;;20.60;99.90;;;;;;4974738;28;20278;-78
2022/11/13 18:44:15;;;;;;;;;;;20.70;99.90;;;;;;4974935;28;19926;-78
2022/11/13 18:46:42;;;;;;;;;;;20.70;99.90;;;;;;4975053;28;19926;-78
2022/11/13 18:49:09;;;;;;;;;;;20.70;99.90;;;;;;4974790;28;20293;-78
2022/11/13 18:51:36;;;;;;;;;;;20.70;99.90;;;;;;4975114;28;19926;-77
2022/11/13 18:54:03;;;;;;;;;;;20.60;99.90;;;;;;4977495;28;19926;-77
2022/11/13 18:56:32;;;;;;;;;;;20.60;99.90;;;;;;4978515;28;20294;-77
2022/11/13 18:58:59;;;;;;;;;;;20.60;99.90;;;;;;4978521;28;20020;-78
2022/11/13 19:01:26;;;;;;;;;;;20.60;99.80;;;;;;4978472;28;19926;-78
2022/11/13 19:03:54;;;;;;;;;;;20.60;99.70;;;;;;4978374;28;19926;-78
2022/11/13 19:06:22;;;;;;;;;;;20.60;99.70;;;;;;4978350;28;19934;-77
2022/11/13 19:08:54;;;;;;;;;;;20.60;99.60;;;;;;4978351;28;20051;-78
2022/11/13 19:11:20;;;;;;;;;;;20.60;99.50;;;;;;4978528;28;19931;-78
2022/11/13 19:13:49;;;;;;;;;;;20.60;99.50;;;;;;4978208;28;19930;-78
2022/11/13 19:16:16;;;;;;;;;;;20.60;99.40;;;;;;4978091;28;19926;-78
2022/11/13 19:18:44;;;;;;;;;;;20.60;99.30;;;;;;4978244;28;19949;-78
2022/11/13 19:21:11;;;;;;;;;;;20.60;99.30;;;;;;4978248;28;19926;-78
2022/11/13 19:23:38;;;;;;;;;;;20.60;99.20;;;;;;4978097;28;20002;-78
2022/11/13 19:26:04;;;;;;;;;;;20.60;99.40;;;;;;4977707;28;20412;-78
2022/11/13 19:28:32;;;;;;;;;;;20.60;99.00;;;;;;4977856;28;19926;-78
2022/11/13 19:30:59;;;;;;;;;;;20.50;98.90;;;;;;4977922;28;20305;-78
2022/11/13 19:33:27;;;;;;;;;;;20.50;98.80;;;;;;4978395;28;19926;-78
2022/11/13 19:35:54;;;;;;;;;;;20.50;98.80;;;;;;4977744;28;19933;-78
2022/11/13 19:38:21;;;;;;;;;;;20.50;98.70;;;;;;4977725;28;19926;-78
2022/11/13 19:40:49;;;;;;;;;;;20.50;98.60;;;;;;4977712;28;19937;-78
2022/11/13 19:43:15;;;;;;;;;;;20.60;98.60;;;;;;4977736;28;19926;-78
2022/11/13 19:45:42;;;;;;;;;;;20.50;98.50;;;;;;4978695;28;19926;-78
2022/11/13 19:48:11;;;;;;;;;;;20.50;98.40;;;;;;4977540;28;19931;-78
2022/11/13 19:50:37;;;;;;;;;;;20.50;98.40;;;;;;4977864;28;19935;-78
2022/11/13 19:53:04;;;;;;;;;;;20.50;98.30;;;;;;4977527;28;19933;-78
2022/11/13 19:55:33;;;;;;;;;;;20.50;98.30;;;;;;4977360;28;19926;-78
2022/11/13 19:58:00;;;;;;;;;;;20.50;98.20;;;;;;4977362;28;19926;-78
2022/11/13 20:00:26;;;;;;;;;;;20.60;98.20;;;;;;4977061;28;20298;-78
2022/11/13 20:02:54;;;;;;;;;;;20.50;98.10;;;;;;4977449;28;19926;-76
2022/11/13 20:05:22;;;;;;;;;;;20.60;98.10;;;;;;4976229;28;19926;-77
2022/11/13 20:07:49;;;;;;;;;;;20.60;98.00;;;;;;4978789;28;19926;-80
2022/11/13 20:10:16;;;;;;;;;;;20.50;98.00;;;;;;4982273;28;19926;-79
2022/11/13 20:12:44;;;;;;;;;;;20.50;98.00;;;;;;4980315;28;19926;-81
2022/11/13 20:15:10;;;;;;;;;;;20.50;98.00;;;;;;4980391;28;19926;-81
2022/11/13 20:17:37;;;;;;;;;;;20.50;98.00;;;;;;4980750;28;20290;-80
2022/11/13 20:20:04;;;;;;;;;;;20.60;98.00;;;;;;4980244;28;19926;-80
2022/11/13 20:22:32;;;;;;;;;;;20.50;98.00;;;;;;4980524;28;19932;-80
2022/11/13 20:24:59;;;;;;;;;;;20.50;98.00;;;;;;4980089;28;19930;-80
2022/11/13 20:27:25;;;;;;;;;;;20.50;97.90;;;;;;4980184;28;19932;-80
2022/11/13 20:29:52;;;;;;;;;;;20.60;97.90;;;;;;4979891;28;19933;-80
2022/11/13 20:32:18;;;;;;;;;;;20.40;97.70;;;;;;4979688;28;19926;-80
2022/11/13 20:34:45;;;;;;;;;;;20.50;97.70;;;;;;4979534;28;19930;-80
2022/11/13 20:37:11;;;;;;;;;;;20.50;97.60;;;;;;4979501;28;20271;-80
2022/11/13 20:39:40;;;;;;;;;;;20.50;97.60;;;;;;4980260;28;19933;-80
2022/11/13 20:42:07;;;;;;;;;;;20.50;97.50;;;;;;4980208;28;19941;-80
2022/11/13 20:44:34;;;;;;;;;;;20.50;97.50;;;;;;4979319;28;19932;-80
2022/11/13 20:47:00;;;;;;;;;;;20.50;97.40;;;;;;4979826;28;19926;-81